sensor_id;sensor_type;location;lat;lon;timestamp;temperature;humidity
9998;DHT22;5038;53.064;8.624;2024-03-08T00:00:38;2.70;99.90
9998;DHT22;5038;53.064;8.624;2024-03-08T00:03:09;2.70;99.90
9998;DHT22;5038;53.064;8.624;2024-03-08T00:05:38;2.70;99.90
9998;DHT22;5038;53.064;8.624;2024-03-08T00:08:06;2.60;99.90
9998;DHT22;5038;53.064;8.624;2024-03-08T00:10:37;2.60;99.90
9998;DHT22;5038;53.064;8.624;2024-03-08T00:13:06;2.60;99.90
9998;DHT22;5038;53.064;8.624;2024-03-08T00:15:34;2.60;99.90
9998;DHT22;5038;53.064;8.624;2024-03-08T00:18:04;2.50;99.90
9998;DHT22;5038;53.064;8.624;2024-03-08T00:20:34;2.50;99.90
9998;DHT22;5038;53.064;8.624;2024-03-08T00:23:02;2.50;99.90
9998;DHT22;5038;53.064;8.624;2024-03-08T00:25:31;2.50;99.90
9998;DHT22;5038;53.064;8.624;2024-03-08T00:28:01;2.50;99.90
9998;DHT22;5038;53.064;8.624;2024-03-08T00:30:29;2.40;99.90
9998;DHT22;5038;53.064;8.624;2024-03-08T00:32:58;2.40;99.90
9998;DHT22;5038;53.064;8.624;2024-03-08T00:35:27;2.40;99.90
9998;DHT22;5038;53.064;8.624;2024-03-08T00:37:58;2.40;99.90
9998;DHT22;5038;53.064;8.624;2024-03-08T00:40:27;2.40;99.90
9998;DHT22;5038;53.064;8.624;2024-03-08T00:42:55;2.40;99.90
9998;DHT22;5038;53.064;8.624;2024-03-08T00:45:24;2.40;99.90
9998;DHT22;5038;53.064;8.624;2024-03-08T00:47:53;2.30;99.90
9998;DHT22;5038;53.064;8.624;2024-03-08T00:50:21;2.30;99.90
9998;DHT22;5038;53.064;8.624;2024-03-08T00:52:50;2.30;99.90
9998;DHT22;5038;53.064;8.624;2024-03-08T00:55:20;2.30;99.90
9998;DHT22;5038;53.064;8.624;2024-03-08T00:57:49;2.30;99.90
9998;DHT22;5038;53.064;8.624;2024-03-08T01:00:19;2.30;99.90
9998;DHT22;5038;53.064;8.624;2024-03-08T01:02:48;2.30;99.90
9998;DHT22;5038;53.064;8.624;2024-03-08T01:05:16;2.30;99.90
9998;DHT22;5038;53.064;8.624;2024-03-08T01:07:46;2.30;99.90
9998;DHT22;5038;53.064;8.624;2024-03-08T01:10:15;2.30;99.90
9998;DHT22;5038;53.064;8.624;2024-03-08T01:12:45;2.30;99.90
9998;DHT22;5038;53.064;8.624;2024-03-08T01:15:13;2.30;99.90
9998;DHT22;5038;53.064;8.624;2024-03-08T01:17:41;2.20;99.90
9998;DHT22;5038;53.064;8.624;2024-03-08T01:20:11;2.20;99.90
9998;DHT22;5038;53.064;8.624;2024-03-08T01:22:40;2.20;99.90
9998;DHT22;5038;53.064;8.624;2024-03-08T01:25:09;2.20;99.90
9998;DHT22;5038;53.064;8.624;2024-03-08T01:27:37;2.20;99.90
9998;DHT22;5038;53.064;8.624;2024-03-08T01:30:08;2.20;99.90
9998;DHT22;5038;53.064;8.624;2024-03-08T01:32:37;2.10;99.90
9998;DHT22;5038;53.064;8.624;2024-03-08T01:35:06;2.10;99.90
9998;DHT22;5038;53.064;8.624;2024-03-08T01:37:37;2.10;99.90
9998;DHT22;5038;53.064;8.624;2024-03-08T01:40:06;2.10;99.90
9998;DHT22;5038;53.064;8.624;2024-03-08T01:42:35;2.10;99.90
9998;DHT22;5038;53.064;8.624;2024-03-08T01:45:07;2.00;99.90
9998;DHT22;5038;53.064;8.624;2024-03-08T01:47:37;2.00;99.90
9998;DHT22;5038;53.064;8.624;2024-03-08T01:50:07;2.00;99.90
9998;DHT22;5038;53.064;8.624;2024-03-08T01:52:36;2.00;99.90
9998;DHT22;5038;53.064;8.624;2024-03-08T01:55:06;2.00;99.90
9998;DHT22;5038;53.064;8.624;2024-03-08T01:57:35;2.00;99.90
9998;DHT22;5038;53.064;8.624;2024-03-08T02:00:07;2.00;99.90
9998;DHT22;5038;53.064;8.624;2024-03-08T02:02:40;1.90;99.90
9998;DHT22;5038;53.064;8.624;2024-03-08T02:05:10;1.90;99.90
9998;DHT22;5038;53.064;8.624;2024-03-08T02:07:40;1.90;99.90
9998;DHT22;5038;53.064;8.624;2024-03-08T02:10:11;1.90;99.90
9998;DHT22;5038;53.064;8.624;2024-03-08T02:12:40;1.90;99.90
9998;DHT22;5038;53.064;8.624;2024-03-08T02:15:09;1.90;99.90
9998;DHT22;5038;53.064;8.624;2024-03-08T02:17:39;1.80;99.90
9998;DHT22;5038;53.064;8.624;2024-03-08T02:20:08;1.80;99.90
9998;DHT22;5038;53.064;8.624;2024-03-08T02:22:39;1.80;99.90
9998;DHT22;5038;53.064;8.624;2024-03-08T02:25:08;1.80;99.90
9998;DHT22;5038;53.064;8.624;2024-03-08T02:27:38;1.80;99.90
9998;DHT22;5038;53.064;8.624;2024-03-08T02:30:07;1.70;99.90
9998;DHT22;5038;53.064;8.624;2024-03-08T02:32:37;1.70;99.90
9998;DHT22;5038;53.064;8.624;2024-03-08T02:35:06;1.70;99.90
9998;DHT22;5038;53.064;8.624;2024-03-08T02:37:34;1.70;99.90
9998;DHT22;5038;53.064;8.624;2024-03-08T02:40:05;1.70;99.90
9998;DHT22;5038;53.064;8.624;2024-03-08T02:42:34;1.70;99.90
9998;DHT22;5038;53.064;8.624;2024-03-08T02:45:03;1.70;99.90
9998;DHT22;5038;53.064;8.624;2024-03-08T02:47:33;1.70;99.90
9998;DHT22;5038;53.064;8.624;2024-03-08T02:50:02;1.60;99.90
9998;DHT22;5038;53.064;8.624;2024-03-08T02:52:31;1.60;99.90
9998;DHT22;5038;53.064;8.624;2024-03-08T02:55:00;1.60;99.90
9998;DHT22;5038;53.064;8.624;2024-03-08T02:57:31;1.60;99.90
9998;DHT22;5038;53.064;8.624;2024-03-08T03:00:00;1.60;99.90
9998;DHT22;5038;53.064;8.624;2024-03-08T03:02:28;1.60;99.90
9998;DHT22;5038;53.064;8.624;2024-03-08T03:04:57;1.60;99.90
9998;DHT22;5038;53.064;8.624;2024-03-08T03:07:25;1.60;99.90
9998;DHT22;5038;53.064;8.624;2024-03-08T03:09:54;1.60;99.90
9998;DHT22;5038;53.064;8.624;2024-03-08T03:12:23;1.60;99.90
9998;DHT22;5038;53.064;8.624;2024-03-08T03:14:53;1.50;99.90
9998;DHT22;5038;53.064;8.624;2024-03-08T03:17:21;1.60;99.90
9998;DHT22;5038;53.064;8.624;2024-03-08T03:19:50;1.50;99.90
9998;DHT22;5038;53.064;8.624;2024-03-08T03:22:19;1.50;99.90
9998;DHT22;5038;53.064;8.624;2024-03-08T03:24:48;1.50;99.90
9998;DHT22;5038;53.064;8.624;2024-03-08T03:27:18;1.40;99.90
9998;DHT22;5038;53.064;8.624;2024-03-08T03:29:47;1.40;99.90
9998;DHT22;5038;53.064;8.624;2024-03-08T03:32:18;1.40;99.90
9998;DHT22;5038;53.064;8.624;2024-03-08T03:34:47;1.40;99.90
9998;DHT22;5038;53.064;8.624;2024-03-08T03:37:15;1.40;99.90
9998;DHT22;5038;53.064;8.624;2024-03-08T03:39:45;1.40;99.90
9998;DHT22;5038;53.064;8.624;2024-03-08T03:42:18;1.40;99.90
9998;DHT22;5038;53.064;8.624;2024-03-08T03:44:48;1.40;99.90
9998;DHT22;5038;53.064;8.624;2024-03-08T03:47:18;1.30;99.90
9998;DHT22;5038;53.064;8.624;2024-03-08T03:49:46;1.30;99.90
9998;DHT22;5038;53.064;8.624;2024-03-08T03:52:15;1.40;99.90
9998;DHT22;5038;53.064;8.624;2024-03-08T03:54:44;1.30;99.90
9998;DHT22;5038;53.064;8.624;2024-03-08T03:57:14;1.30;99.90
9998;DHT22;5038;53.064;8.624;2024-03-08T03:59:42;1.20;99.90
9998;DHT22;5038;53.064;8.624;2024-03-08T04:02:11;1.20;99.90
9998;DHT22;5038;53.064;8.624;2024-03-08T04:04:41;1.20;99.90
9998;DHT22;5038;53.064;8.624;2024-03-08T04:07:09;1.20;99.90
9998;DHT22;5038;53.064;8.624;2024-03-08T04:09:38;1.20;99.90
9998;DHT22;5038;53.064;8.624;2024-03-08T04:12:07;1.20;99.90
9998;DHT22;5038;53.064;8.624;2024-03-08T04:14:40;1.20;99.90
9998;DHT22;5038;53.064;8.624;2024-03-08T04:17:10;1.10;99.90
9998;DHT22;5038;53.064;8.624;2024-03-08T04:19:41;1.10;99.90
9998;DHT22;5038;53.064;8.624;2024-03-08T04:22:09;1.10;99.90
9998;DHT22;5038;53.064;8.624;2024-03-08T04:24:37;1.10;99.90
9998;DHT22;5038;53.064;8.624;2024-03-08T04:27:07;1.10;99.90
9998;DHT22;5038;53.064;8.624;2024-03-08T04:29:36;1.10;99.90
9998;DHT22;5038;53.064;8.624;2024-03-08T04:32:05;1.00;99.90
9998;DHT22;5038;53.064;8.624;2024-03-08T04:34:35;1.00;99.90
9998;DHT22;5038;53.064;8.624;2024-03-08T04:37:05;1.00;99.90
9998;DHT22;5038;53.064;8.624;2024-03-08T04:39:34;1.00;99.90
9998;DHT22;5038;53.064;8.624;2024-03-08T04:42:03;1.00;99.90
9998;DHT22;5038;53.064;8.624;2024-03-08T04:44:33;1.00;99.90
9998;DHT22;5038;53.064;8.624;2024-03-08T04:47:02;1.00;99.90
9998;DHT22;5038;53.064;8.624;2024-03-08T04:49:31;1.00;99.90
9998;DHT22;5038;53.064;8.624;2024-03-08T04:52:02;1.00;99.90
9998;DHT22;5038;53.064;8.624;2024-03-08T04:54:33;1.00;99.90
9998;DHT22;5038;53.064;8.624;2024-03-08T04:57:01;1.00;99.90
9998;DHT22;5038;53.064;8.624;2024-03-08T04:59:35;1.00;99.90
9998;DHT22;5038;53.064;8.624;2024-03-08T05:02:03;1.00;99.90
9998;DHT22;5038;53.064;8.624;2024-03-08T05:04:32;0.90;99.90
9998;DHT22;5038;53.064;8.624;2024-03-08T05:07:00;0.90;99.90
9998;DHT22;5038;53.064;8.624;2024-03-08T05:09:29;0.90;99.90
9998;DHT22;5038;53.064;8.624;2024-03-08T05:12:00;0.90;99.90
9998;DHT22;5038;53.064;8.624;2024-03-08T05:14:29;0.90;99.90
9998;DHT22;5038;53.064;8.624;2024-03-08T05:16:58;0.90;99.90
9998;DHT22;5038;53.064;8.624;2024-03-08T05:19:27;0.90;99.90
9998;DHT22;5038;53.064;8.624;2024-03-08T05:22:01;0.90;99.90
9998;DHT22;5038;53.064;8.624;2024-03-08T05:24:30;0.90;99.90
9998;DHT22;5038;53.064;8.624;2024-03-08T05:27:00;0.90;99.90
9998;DHT22;5038;53.064;8.624;2024-03-08T05:29:30;0.90;99.90
9998;DHT22;5038;53.064;8.624;2024-03-08T05:31:59;0.90;99.90
9998;DHT22;5038;53.064;8.624;2024-03-08T05:34:27;0.80;99.90
9998;DHT22;5038;53.064;8.624;2024-03-08T05:36:56;0.80;99.90
9998;DHT22;5038;53.064;8.624;2024-03-08T05:39:26;0.80;99.90
9998;DHT22;5038;53.064;8.624;2024-03-08T05:41:54;0.80;99.90
9998;DHT22;5038;53.064;8.624;2024-03-08T05:44:24;0.80;99.90
9998;DHT22;5038;53.064;8.624;2024-03-08T05:46:56;0.90;99.90
9998;DHT22;5038;53.064;8.624;2024-03-08T05:49:24;0.80;99.90
9998;DHT22;5038;53.064;8.624;2024-03-08T05:51:53;0.80;99.90
9998;DHT22;5038;53.064;8.624;2024-03-08T05:54:21;0.80;99.90
9998;DHT22;5038;53.064;8.624;2024-03-08T05:56:52;0.80;99.90
9998;DHT22;5038;53.064;8.624;2024-03-08T05:59:21;0.70;99.90
9998;DHT22;5038;53.064;8.624;2024-03-08T06:01:52;0.70;99.90
9998;DHT22;5038;53.064;8.624;2024-03-08T06:04:21;0.70;99.90
9998;DHT22;5038;53.064;8.624;2024-03-08T06:06:50;0.70;99.90
9998;DHT22;5038;53.064;8.624;2024-03-08T06:09:19;0.70;99.90
9998;DHT22;5038;53.064;8.624;2024-03-08T06:11:51;0.70;99.90
9998;DHT22;5038;53.064;8.624;2024-03-08T06:14:21;0.70;99.90
9998;DHT22;5038;53.064;8.624;2024-03-08T06:16:52;0.70;99.90
9998;DHT22;5038;53.064;8.624;2024-03-08T06:19:21;0.60;99.90
9998;DHT22;5038;53.064;8.624;2024-03-08T06:21:49;0.70;99.90
9998;DHT22;5038;53.064;8.624;2024-03-08T06:24:18;0.70;99.90
9998;DHT22;5038;53.064;8.624;2024-03-08T06:26:46;0.70;99.90
9998;DHT22;5038;53.064;8.624;2024-03-08T06:29:14;0.70;99.90
9998;DHT22;5038;53.064;8.624;2024-03-08T06:31:43;0.70;99.90
9998;DHT22;5038;53.064;8.624;2024-03-08T06:34:13;0.80;99.90
9998;DHT22;5038;53.064;8.624;2024-03-08T06:36:42;0.70;99.90
9998;DHT22;5038;53.064;8.624;2024-03-08T06:39:11;0.80;99.90
9998;DHT22;5038;53.064;8.624;2024-03-08T06:41:39;0.80;99.90
9998;DHT22;5038;53.064;8.624;2024-03-08T06:44:08;0.80;99.90
9998;DHT22;5038;53.064;8.624;2024-03-08T06:46:36;0.90;99.90
9998;DHT22;5038;53.064;8.624;2024-03-08T06:49:05;0.90;99.90
9998;DHT22;5038;53.064;8.624;2024-03-08T06:51:36;0.90;99.90
9998;DHT22;5038;53.064;8.624;2024-03-08T06:54:04;1.00;99.90
9998;DHT22;5038;53.064;8.624;2024-03-08T06:56:36;1.10;99.90
9998;DHT22;5038;53.064;8.624;2024-03-08T06:59:05;1.20;99.90
9998;DHT22;5038;53.064;8.624;2024-03-08T07:01:40;1.20;99.90
9998;DHT22;5038;53.064;8.624;2024-03-08T07:04:08;1.30;99.90
9998;DHT22;5038;53.064;8.624;2024-03-08T07:06:40;1.40;99.90
9998;DHT22;5038;53.064;8.624;2024-03-08T07:09:09;1.40;99.90
9998;DHT22;5038;53.064;8.624;2024-03-08T07:11:39;1.40;99.90
9998;DHT22;5038;53.064;8.624;2024-03-08T07:14:11;1.50;99.90
9998;DHT22;5038;53.064;8.624;2024-03-08T07:16:42;1.50;99.90
9998;DHT22;5038;53.064;8.624;2024-03-08T07:19:13;1.50;99.90
9998;DHT22;5038;53.064;8.624;2024-03-08T07:21:43;1.50;99.90
9998;DHT22;5038;53.064;8.624;2024-03-08T07:24:12;1.60;99.90
9998;DHT22;5038;53.064;8.624;2024-03-08T07:27:05;1.60;99.90
9998;DHT22;5038;53.064;8.624;2024-03-08T07:29:33;1.70;99.90
9998;DHT22;5038;53.064;8.624;2024-03-08T07:32:03;1.70;99.90
9998;DHT22;5038;53.064;8.624;2024-03-08T07:34:42;1.80;99.90
9998;DHT22;5038;53.064;8.624;2024-03-08T07:37:13;1.80;99.90
9998;DHT22;5038;53.064;8.624;2024-03-08T07:39:42;1.90;99.90
9998;DHT22;5038;53.064;8.624;2024-03-08T07:42:12;1.90;99.90
9998;DHT22;5038;53.064;8.624;2024-03-08T07:44:41;2.00;99.90
9998;DHT22;5038;53.064;8.624;2024-03-08T07:47:10;2.10;99.90
9998;DHT22;5038;53.064;8.624;2024-03-08T07:49:40;2.10;99.90
9998;DHT22;5038;53.064;8.624;2024-03-08T07:52:10;2.10;99.90
9998;DHT22;5038;53.064;8.624;2024-03-08T07:54:44;2.20;99.90
9998;DHT22;5038;53.064;8.624;2024-03-08T07:57:16;2.30;99.90
9998;DHT22;5038;53.064;8.624;2024-03-08T07:59:45;2.40;99.90
9998;DHT22;5038;53.064;8.624;2024-03-08T08:02:13;2.40;99.90
9998;DHT22;5038;53.064;8.624;2024-03-08T08:04:44;2.40;99.90
9998;DHT22;5038;53.064;8.624;2024-03-08T08:07:13;2.50;99.90
9998;DHT22;5038;53.064;8.624;2024-03-08T08:09:45;2.60;99.90
9998;DHT22;5038;53.064;8.624;2024-03-08T08:12:13;2.70;99.90
9998;DHT22;5038;53.064;8.624;2024-03-08T08:14:43;2.80;99.90
9998;DHT22;5038;53.064;8.624;2024-03-08T08:17:12;2.90;99.90
9998;DHT22;5038;53.064;8.624;2024-03-08T08:19:41;3.00;99.90
9998;DHT22;5038;53.064;8.624;2024-03-08T08:22:10;3.10;99.90
9998;DHT22;5038;53.064;8.624;2024-03-08T08:24:41;3.20;99.90
9998;DHT22;5038;53.064;8.624;2024-03-08T08:27:13;3.40;99.90
9998;DHT22;5038;53.064;8.624;2024-03-08T08:29:43;3.50;99.90
9998;DHT22;5038;53.064;8.624;2024-03-08T08:32:13;3.60;99.90
9998;DHT22;5038;53.064;8.624;2024-03-08T08:34:41;3.70;99.90
9998;DHT22;5038;53.064;8.624;2024-03-08T08:37:12;3.80;99.90
9998;DHT22;5038;53.064;8.624;2024-03-08T08:39:42;3.80;99.90
9998;DHT22;5038;53.064;8.624;2024-03-08T08:42:17;3.90;99.90
9998;DHT22;5038;53.064;8.624;2024-03-08T08:44:46;4.00;99.90
9998;DHT22;5038;53.064;8.624;2024-03-08T08:47:19;4.10;99.90
9998;DHT22;5038;53.064;8.624;2024-03-08T08:49:47;4.20;99.90
9998;DHT22;5038;53.064;8.624;2024-03-08T08:52:18;4.30;99.90
9998;DHT22;5038;53.064;8.624;2024-03-08T08:54:47;4.40;99.90
9998;DHT22;5038;53.064;8.624;2024-03-08T08:57:19;4.40;99.90
9998;DHT22;5038;53.064;8.624;2024-03-08T08:59:48;4.50;99.90
9998;DHT22;5038;53.064;8.624;2024-03-08T09:02:17;4.50;99.90
9998;DHT22;5038;53.064;8.624;2024-03-08T09:04:48;4.60;99.90
9998;DHT22;5038;53.064;8.624;2024-03-08T09:07:18;4.70;99.90
9998;DHT22;5038;53.064;8.624;2024-03-08T09:09:47;4.80;99.90
9998;DHT22;5038;53.064;8.624;2024-03-08T09:12:16;4.80;99.90
9998;DHT22;5038;53.064;8.624;2024-03-08T09:14:46;4.80;99.90
9998;DHT22;5038;53.064;8.624;2024-03-08T09:17:16;4.80;99.90
9998;DHT22;5038;53.064;8.624;2024-03-08T09:19:48;4.80;99.90
9998;DHT22;5038;53.064;8.624;2024-03-08T09:22:21;4.80;99.90
9998;DHT22;5038;53.064;8.624;2024-03-08T09:24:50;4.90;99.90
9998;DHT22;5038;53.064;8.624;2024-03-08T09:27:18;4.90;99.90
9998;DHT22;5038;53.064;8.624;2024-03-08T09:29:48;5.00;99.90
9998;DHT22;5038;53.064;8.624;2024-03-08T09:32:18;5.00;99.90
9998;DHT22;5038;53.064;8.624;2024-03-08T09:34:46;5.00;99.90
9998;DHT22;5038;53.064;8.624;2024-03-08T09:37:15;5.10;99.90
9998;DHT22;5038;53.064;8.624;2024-03-08T09:39:46;5.10;99.90
9998;DHT22;5038;53.064;8.624;2024-03-08T09:42:15;5.10;99.90
9998;DHT22;5038;53.064;8.624;2024-03-08T09:44:44;5.10;99.90
9998;DHT22;5038;53.064;8.624;2024-03-08T09:47:18;5.10;99.90
9998;DHT22;5038;53.064;8.624;2024-03-08T09:49:46;5.20;99.90
9998;DHT22;5038;53.064;8.624;2024-03-08T09:52:18;5.20;99.90
9998;DHT22;5038;53.064;8.624;2024-03-08T09:54:48;5.30;99.90
9998;DHT22;5038;53.064;8.624;2024-03-08T09:57:19;5.30;99.90
9998;DHT22;5038;53.064;8.624;2024-03-08T09:59:48;5.40;99.90
9998;DHT22;5038;53.064;8.624;2024-03-08T10:02:19;5.40;99.90
9998;DHT22;5038;53.064;8.624;2024-03-08T10:04:51;5.50;99.90
9998;DHT22;5038;53.064;8.624;2024-03-08T10:07:20;5.50;99.90
9998;DHT22;5038;53.064;8.624;2024-03-08T10:09:52;5.60;99.90
9998;DHT22;5038;53.064;8.624;2024-03-08T10:12:20;5.60;99.90
9998;DHT22;5038;53.064;8.624;2024-03-08T10:14:49;5.60;99.90
9998;DHT22;5038;53.064;8.624;2024-03-08T10:17:19;5.70;99.90
9998;DHT22;5038;53.064;8.624;2024-03-08T10:19:51;5.70;99.90
9998;DHT22;5038;53.064;8.624;2024-03-08T10:22:20;5.80;99.90
9998;DHT22;5038;53.064;8.624;2024-03-08T10:24:49;5.80;99.90
9998;DHT22;5038;53.064;8.624;2024-03-08T10:27:19;5.80;99.90
9998;DHT22;5038;53.064;8.624;2024-03-08T10:29:48;5.90;99.90
9998;DHT22;5038;53.064;8.624;2024-03-08T10:32:21;5.90;99.90
9998;DHT22;5038;53.064;8.624;2024-03-08T10:34:52;6.00;99.90
9998;DHT22;5038;53.064;8.624;2024-03-08T10:37:23;6.10;99.90
9998;DHT22;5038;53.064;8.624;2024-03-08T10:40:01;6.10;99.90
9998;DHT22;5038;53.064;8.624;2024-03-08T10:42:40;6.10;99.90
9998;DHT22;5038;53.064;8.624;2024-03-08T10:45:15;6.10;99.90
9998;DHT22;5038;53.064;8.624;2024-03-08T10:47:49;6.20;99.90
9998;DHT22;5038;53.064;8.624;2024-03-08T10:50:22;6.20;99.90
9998;DHT22;5038;53.064;8.624;2024-03-08T10:52:52;6.30;99.90
9998;DHT22;5038;53.064;8.624;2024-03-08T10:55:24;6.40;99.90
9998;DHT22;5038;53.064;8.624;2024-03-08T10:57:54;6.40;99.90
9998;DHT22;5038;53.064;8.624;2024-03-08T11:00:22;6.40;99.90
9998;DHT22;5038;53.064;8.624;2024-03-08T11:02:57;6.50;99.90
9998;DHT22;5038;53.064;8.624;2024-03-08T11:05:37;6.50;99.90
9998;DHT22;5038;53.064;8.624;2024-03-08T11:08:17;6.50;99.90
9998;DHT22;5038;53.064;8.624;2024-03-08T11:10:52;6.60;99.90
9998;DHT22;5038;53.064;8.624;2024-03-08T11:13:33;6.60;99.90
9998;DHT22;5038;53.064;8.624;2024-03-08T11:16:05;6.60;99.90
9998;DHT22;5038;53.064;8.624;2024-03-08T11:18:40;6.70;99.90
9998;DHT22;5038;53.064;8.624;2024-03-08T11:21:09;6.70;99.90
9998;DHT22;5038;53.064;8.624;2024-03-08T11:23:41;6.80;99.90
9998;DHT22;5038;53.064;8.624;2024-03-08T11:26:18;6.80;99.90
9998;DHT22;5038;53.064;8.624;2024-03-08T11:28:49;6.90;99.90
9998;DHT22;5038;53.064;8.624;2024-03-08T11:31:24;6.80;99.90
9998;DHT22;5038;53.064;8.624;2024-03-08T11:33:56;6.90;99.90
9998;DHT22;5038;53.064;8.624;2024-03-08T11:36:27;7.00;99.90
9998;DHT22;5038;53.064;8.624;2024-03-08T11:39:02;7.10;99.90
9998;DHT22;5038;53.064;8.624;2024-03-08T11:41:37;7.10;99.90
9998;DHT22;5038;53.064;8.624;2024-03-08T11:44:06;7.10;99.90
9998;DHT22;5038;53.064;8.624;2024-03-08T11:46:37;7.20;99.90
9998;DHT22;5038;53.064;8.624;2024-03-08T11:49:11;7.20;99.90
9998;DHT22;5038;53.064;8.624;2024-03-08T11:51:40;7.30;99.90
9998;DHT22;5038;53.064;8.624;2024-03-08T11:54:11;7.30;99.90
9998;DHT22;5038;53.064;8.624;2024-03-08T11:56:40;7.30;99.90
9998;DHT22;5038;53.064;8.624;2024-03-08T11:59:11;7.40;99.90
9998;DHT22;5038;53.064;8.624;2024-03-08T12:01:59;7.40;99.90
9998;DHT22;5038;53.064;8.624;2024-03-08T12:04:35;7.40;99.90
9998;DHT22;5038;53.064;8.624;2024-03-08T12:07:09;7.40;99.90
9998;DHT22;5038;53.064;8.624;2024-03-08T12:09:40;7.50;99.90
9998;DHT22;5038;53.064;8.624;2024-03-08T12:12:13;7.50;99.90
9998;DHT22;5038;53.064;8.624;2024-03-08T12:14:43;7.50;99.90
9998;DHT22;5038;53.064;8.624;2024-03-08T12:17:12;7.60;99.90
9998;DHT22;5038;53.064;8.624;2024-03-08T12:19:47;7.70;99.90
9998;DHT22;5038;53.064;8.624;2024-03-08T12:22:16;7.70;99.90
9998;DHT22;5038;53.064;8.624;2024-03-08T12:24:45;7.70;99.90
9998;DHT22;5038;53.064;8.624;2024-03-08T12:27:31;7.80;99.90
9998;DHT22;5038;53.064;8.624;2024-03-08T12:30:16;7.80;99.90
9998;DHT22;5038;53.064;8.624;2024-03-08T12:32:54;7.80;99.90
9998;DHT22;5038;53.064;8.624;2024-03-08T12:35:26;7.80;99.90
9998;DHT22;5038;53.064;8.624;2024-03-08T12:37:56;7.90;99.90
9998;DHT22;5038;53.064;8.624;2024-03-08T12:40:29;7.90;99.90
9998;DHT22;5038;53.064;8.624;2024-03-08T12:42:59;7.90;99.90
9998;DHT22;5038;53.064;8.624;2024-03-08T12:45:28;8.00;99.90
9998;DHT22;5038;53.064;8.624;2024-03-08T12:47:57;8.00;99.90
9998;DHT22;5038;53.064;8.624;2024-03-08T12:50:28;8.00;99.90
9998;DHT22;5038;53.064;8.624;2024-03-08T12:52:57;8.10;99.90
9998;DHT22;5038;53.064;8.624;2024-03-08T12:55:26;8.10;99.90
9998;DHT22;5038;53.064;8.624;2024-03-08T12:57:54;8.10;99.90
9998;DHT22;5038;53.064;8.624;2024-03-08T13:00:23;8.20;99.90
9998;DHT22;5038;53.064;8.624;2024-03-08T13:02:53;8.20;99.90
9998;DHT22;5038;53.064;8.624;2024-03-08T13:05:22;8.20;99.90
9998;DHT22;5038;53.064;8.624;2024-03-08T13:07:52;8.30;99.90
9998;DHT22;5038;53.064;8.624;2024-03-08T13:10:22;8.30;99.90
9998;DHT22;5038;53.064;8.624;2024-03-08T13:12:50;8.30;99.90
9998;DHT22;5038;53.064;8.624;2024-03-08T13:15:20;8.30;99.90
9998;DHT22;5038;53.064;8.624;2024-03-08T13:17:49;8.40;99.90
9998;DHT22;5038;53.064;8.624;2024-03-08T13:20:18;8.40;99.90
9998;DHT22;5038;53.064;8.624;2024-03-08T13:23:01;8.40;99.90
9998;DHT22;5038;53.064;8.624;2024-03-08T13:25:29;8.40;99.90
9998;DHT22;5038;53.064;8.624;2024-03-08T13:27:57;8.50;99.90
9998;DHT22;5038;53.064;8.624;2024-03-08T13:30:28;8.50;99.90
9998;DHT22;5038;53.064;8.624;2024-03-08T13:32:58;8.50;99.90
9998;DHT22;5038;53.064;8.624;2024-03-08T13:35:28;8.60;99.90
9998;DHT22;5038;53.064;8.624;2024-03-08T13:37:57;8.60;99.90
9998;DHT22;5038;53.064;8.624;2024-03-08T13:40:29;8.70;99.90
9998;DHT22;5038;53.064;8.624;2024-03-08T13:42:58;8.70;99.90
9998;DHT22;5038;53.064;8.624;2024-03-08T13:45:28;8.70;99.90
9998;DHT22;5038;53.064;8.624;2024-03-08T13:47:57;8.80;99.90
9998;DHT22;5038;53.064;8.624;2024-03-08T13:50:26;8.80;99.90
9998;DHT22;5038;53.064;8.624;2024-03-08T13:52:55;8.80;99.90
9998;DHT22;5038;53.064;8.624;2024-03-08T13:55:24;8.90;99.90
9998;DHT22;5038;53.064;8.624;2024-03-08T13:57:56;8.90;99.90
9998;DHT22;5038;53.064;8.624;2024-03-08T14:00:26;9.00;99.90
9998;DHT22;5038;53.064;8.624;2024-03-08T14:03:01;9.00;99.90
9998;DHT22;5038;53.064;8.624;2024-03-08T14:05:32;9.00;99.90
9998;DHT22;5038;53.064;8.624;2024-03-08T14:08:02;9.10;99.90
9998;DHT22;5038;53.064;8.624;2024-03-08T14:10:31;9.10;99.90
9998;DHT22;5038;53.064;8.624;2024-03-08T14:13:03;9.10;99.90
9998;DHT22;5038;53.064;8.624;2024-03-08T14:15:32;9.10;99.90
9998;DHT22;5038;53.064;8.624;2024-03-08T14:18:00;9.10;99.90
9998;DHT22;5038;53.064;8.624;2024-03-08T14:20:29;9.10;99.90
9998;DHT22;5038;53.064;8.624;2024-03-08T14:22:58;9.20;99.90
9998;DHT22;5038;53.064;8.624;2024-03-08T14:25:27;9.20;99.90
9998;DHT22;5038;53.064;8.624;2024-03-08T14:27:57;9.20;99.90
9998;DHT22;5038;53.064;8.624;2024-03-08T14:30:30;9.30;99.90
9998;DHT22;5038;53.064;8.624;2024-03-08T14:33:05;9.30;99.90
9998;DHT22;5038;53.064;8.624;2024-03-08T14:35:36;9.30;99.90
9998;DHT22;5038;53.064;8.624;2024-03-08T14:38:05;9.40;99.90
9998;DHT22;5038;53.064;8.624;2024-03-08T14:40:36;9.40;99.90
9998;DHT22;5038;53.064;8.624;2024-03-08T14:43:05;9.50;99.90
9998;DHT22;5038;53.064;8.624;2024-03-08T14:45:37;9.50;99.90
9998;DHT22;5038;53.064;8.624;2024-03-08T14:48:08;9.50;99.90
9998;DHT22;5038;53.064;8.624;2024-03-08T14:50:39;9.50;99.90
9998;DHT22;5038;53.064;8.624;2024-03-08T14:53:07;9.60;99.90
9998;DHT22;5038;53.064;8.624;2024-03-08T14:55:36;9.50;99.90
9998;DHT22;5038;53.064;8.624;2024-03-08T14:58:04;9.50;99.90
9998;DHT22;5038;53.064;8.624;2024-03-08T15:00:32;9.60;99.90
9998;DHT22;5038;53.064;8.624;2024-03-08T15:03:04;9.60;99.90
9998;DHT22;5038;53.064;8.624;2024-03-08T15:05:34;9.60;99.90
9998;DHT22;5038;53.064;8.624;2024-03-08T15:08:06;9.60;99.90
9998;DHT22;5038;53.064;8.624;2024-03-08T15:10:39;9.60;99.90
9998;DHT22;5038;53.064;8.624;2024-03-08T15:13:09;9.60;99.90
9998;DHT22;5038;53.064;8.624;2024-03-08T15:15:50;9.60;99.90
9998;DHT22;5038;53.064;8.624;2024-03-08T15:18:25;9.60;99.90
9998;DHT22;5038;53.064;8.624;2024-03-08T15:20:58;9.60;99.90
9998;DHT22;5038;53.064;8.624;2024-03-08T15:23:26;9.60;99.90
9998;DHT22;5038;53.064;8.624;2024-03-08T15:25:54;9.60;99.90
9998;DHT22;5038;53.064;8.624;2024-03-08T15:28:24;9.60;99.90
9998;DHT22;5038;53.064;8.624;2024-03-08T15:31:01;9.60;99.90
9998;DHT22;5038;53.064;8.624;2024-03-08T15:33:35;9.60;99.90
9998;DHT22;5038;53.064;8.624;2024-03-08T15:36:09;9.50;99.90
9998;DHT22;5038;53.064;8.624;2024-03-08T15:38:38;9.50;99.90
9998;DHT22;5038;53.064;8.624;2024-03-08T15:41:07;9.50;99.90
9998;DHT22;5038;53.064;8.624;2024-03-08T15:43:37;9.50;99.90
9998;DHT22;5038;53.064;8.624;2024-03-08T15:46:07;9.50;99.90
9998;DHT22;5038;53.064;8.624;2024-03-08T15:48:38;9.40;99.90
9998;DHT22;5038;53.064;8.624;2024-03-08T15:51:09;9.40;99.90
9998;DHT22;5038;53.064;8.624;2024-03-08T15:53:39;9.40;99.90
9998;DHT22;5038;53.064;8.624;2024-03-08T15:56:07;9.40;99.90
9998;DHT22;5038;53.064;8.624;2024-03-08T15:58:36;9.30;99.90
9998;DHT22;5038;53.064;8.624;2024-03-08T16:01:06;9.30;99.90
9998;DHT22;5038;53.064;8.624;2024-03-08T16:03:34;9.30;99.90
9998;DHT22;5038;53.064;8.624;2024-03-08T16:06:05;9.30;99.90
9998;DHT22;5038;53.064;8.624;2024-03-08T16:08:33;9.30;99.90
9998;DHT22;5038;53.064;8.624;2024-03-08T16:11:06;9.20;99.90
9998;DHT22;5038;53.064;8.624;2024-03-08T16:13:35;9.20;99.90
9998;DHT22;5038;53.064;8.624;2024-03-08T16:16:06;9.20;99.90
9998;DHT22;5038;53.064;8.624;2024-03-08T16:18:34;9.10;99.90
9998;DHT22;5038;53.064;8.624;2024-03-08T16:21:06;9.10;99.90
9998;DHT22;5038;53.064;8.624;2024-03-08T16:23:35;9.10;99.90
9998;DHT22;5038;53.064;8.624;2024-03-08T16:26:05;9.10;99.90
9998;DHT22;5038;53.064;8.624;2024-03-08T16:28:36;9.00;99.90
9998;DHT22;5038;53.064;8.624;2024-03-08T16:31:09;9.00;99.90
9998;DHT22;5038;53.064;8.624;2024-03-08T16:33:41;8.90;99.90
9998;DHT22;5038;53.064;8.624;2024-03-08T16:36:13;8.90;99.90